Search METAR Data

METAR Data for LIPY:

LIPY 241620Z AUTO 17004KT 130V200 9999 -RA BKN026/// OVC077/// 10/07 Q1007